createdAt,value
2023-03-11T00:01:20.864Z,3.90
2023-03-11T00:06:23.477Z,3.90
2023-03-11T00:11:27.893Z,3.90
2023-03-11T00:16:30.518Z,3.90
2023-03-11T00:21:33.605Z,3.90
2023-03-11T00:26:39.311Z,3.80
2023-03-11T00:31:42.012Z,3.70
2023-03-11T00:36:44.873Z,3.60
2023-03-11T00:41:52.106Z,3.60
2023-03-11T00:46:57.306Z,3.50
2023-03-11T00:52:03.327Z,3.60
2023-03-11T00:57:10.067Z,3.60
2023-03-11T01:02:15.404Z,3.70
2023-03-11T01:07:18.528Z,3.80
2023-03-11T01:12:28.201Z,3.80
2023-03-11T01:17:31.109Z,3.80
2023-03-11T01:22:35.996Z,3.80
2023-03-11T01:27:42.589Z,3.90
2023-03-11T01:32:46.147Z,3.90
2023-03-11T01:37:49.056Z,3.80
2023-03-11T01:42:55.798Z,3.70
2023-03-11T01:47:58.470Z,3.60
2023-03-11T01:53:07.124Z,3.50
2023-03-11T01:58:19.129Z,3.40
2023-03-11T02:03:27.679Z,3.40
2023-03-11T02:08:32.738Z,3.30
2023-03-11T02:13:37.796Z,3.30
2023-03-11T02:18:43.976Z,3.30
2023-03-11T02:23:54.824Z,3.30
2023-03-11T02:29:01.927Z,3.40
2023-03-11T02:34:06.036Z,3.30
2023-03-11T02:39:12.423Z,3.40
2023-03-11T02:44:17.157Z,3.40
2023-03-11T02:49:21.504Z,3.30
2023-03-11T02:54:24.204Z,3.40
2023-03-11T02:59:30.529Z,3.40
2023-03-11T03:04:33.289Z,3.40
2023-03-11T03:09:37.045Z,3.50
2023-03-11T03:14:43.774Z,3.50
2023-03-11T03:19:46.559Z,3.40
2023-03-11T03:24:49.463Z,3.40
2023-03-11T03:29:53.809Z,3.30
2023-03-11T03:34:56.609Z,3.20
2023-03-11T03:39:59.393Z,3.10
2023-03-11T03:45:09.087Z,3.00
2023-03-11T03:50:12.875Z,2.90
2023-03-11T03:55:15.461Z,2.80
2023-03-11T04:00:22.234Z,2.80
2023-03-11T04:05:24.743Z,2.90
2023-03-11T04:10:27.725Z,2.90
2023-03-11T04:15:32.574Z,2.90
2023-03-11T04:20:35.249Z,2.90
2023-03-11T04:25:38.383Z,2.90
2023-03-11T04:30:42.953Z,2.90
2023-03-11T04:35:45.907Z,2.90
2023-03-11T04:40:48.877Z,2.90
2023-03-11T04:45:53.257Z,2.90
2023-03-11T04:50:55.896Z,2.90
2023-03-11T04:55:58.730Z,2.80
2023-03-11T05:01:02.993Z,2.80
2023-03-11T05:06:06.147Z,2.70
2023-03-11T05:11:09.016Z,2.60
2023-03-11T05:16:13.633Z,2.50
2023-03-11T05:21:16.932Z,2.40
2023-03-11T05:26:19.680Z,2.40
2023-03-11T05:31:26.562Z,2.30
2023-03-11T05:36:29.033Z,2.20
2023-03-11T05:41:31.910Z,2.10
2023-03-11T05:46:42.006Z,2.10
2023-03-11T05:51:44.541Z,2.00
2023-03-11T05:56:47.590Z,2.00
2023-03-11T06:01:53.412Z,2.00
2023-03-11T06:06:56.169Z,1.90
2023-03-11T06:11:58.784Z,1.90
2023-03-11T06:17:04.445Z,2.00
2023-03-11T06:22:07.012Z,2.30
2023-03-11T06:27:09.430Z,2.80
2023-03-11T06:32:15.460Z,3.60
2023-03-11T06:37:18.284Z,4.50
2023-03-11T06:42:20.800Z,5.40
2023-03-11T06:47:27.009Z,6.40
2023-03-11T06:52:30.288Z,7.40
2023-03-11T06:57:33.545Z,8.30
2023-03-11T07:02:37.470Z,9.20
2023-03-11T07:07:39.899Z,10.10
2023-03-11T07:12:42.266Z,10.90
2023-03-11T07:17:46.126Z,11.60
2023-03-11T07:22:48.714Z,12.30
2023-03-11T07:27:51.273Z,13.00
2023-03-11T07:32:55.406Z,13.60
2023-03-11T07:38:04.151Z,14.20
2023-03-11T07:43:06.771Z,14.70
2023-03-11T07:48:10.672Z,15.20
2023-03-11T07:53:13.339Z,15.60
2023-03-11T07:58:15.802Z,16.10
2023-03-11T08:03:19.869Z,16.50
2023-03-11T08:08:22.350Z,16.90
2023-03-11T08:13:24.854Z,17.30
2023-03-11T08:18:29.018Z,17.60
2023-03-11T08:23:31.624Z,17.90
2023-03-11T08:28:34.820Z,18.30
2023-03-11T08:33:40.746Z,18.60
2023-03-11T08:38:43.384Z,18.90
2023-03-11T08:43:45.986Z,19.10
2023-03-11T08:48:51.816Z,19.20
2023-03-11T08:53:54.930Z,19.30
2023-03-11T08:58:57.386Z,19.50
2023-03-11T09:04:01.341Z,19.70
2023-03-11T09:09:03.992Z,19.80
2023-03-11T09:14:06.507Z,19.90
2023-03-11T09:19:10.596Z,20.00
2023-03-11T09:24:12.940Z,20.00
2023-03-11T09:29:18.244Z,20.10
2023-03-11T09:34:22.209Z,20.30
2023-03-11T09:39:24.849Z,20.30
2023-03-11T09:44:33.144Z,20.20
2023-03-11T09:49:55.593Z,20.10
2023-03-11T10:00:26.545Z,19.90
2023-03-11T10:05:30.787Z,19.90
2023-03-11T10:10:40.109Z,19.70
2023-03-11T10:15:49.254Z,19.50
2023-03-11T10:20:58.970Z,19.40
2023-03-11T10:26:07.156Z,19.40
2023-03-11T10:31:20.456Z,19.40
2023-03-11T10:36:34.281Z,19.40
2023-03-11T10:41:43.966Z,19.40
2023-03-11T10:46:46.523Z,19.40
2023-03-11T10:51:52.442Z,19.40
2023-03-11T10:56:57.022Z,19.50
2023-03-11T11:02:01.976Z,19.50
2023-03-11T11:07:30.275Z,19.60
2023-03-11T11:12:32.833Z,19.70
2023-03-11T11:17:35.241Z,19.60
2023-03-11T11:22:47.732Z,19.50
2023-03-11T11:27:55.484Z,19.40
2023-03-11T11:33:21.496Z,19.40
2023-03-11T11:38:27.499Z,19.50
2023-03-11T11:43:42.314Z,19.50
2023-03-11T11:48:52.514Z,19.40
2023-03-11T11:54:01.370Z,19.20
2023-03-11T11:59:09.502Z,19.10
2023-03-11T12:04:31.724Z,18.80
2023-03-11T12:09:43.455Z,18.40
2023-03-11T12:14:53.466Z,18.00
2023-03-11T12:20:00.206Z,17.60
2023-03-11T12:25:18.548Z,17.40
2023-03-11T12:30:25.364Z,17.10
2023-03-11T12:35:31.087Z,16.80
2023-03-11T12:40:48.941Z,16.70
2023-03-11T12:45:52.403Z,16.50
2023-03-11T12:50:55.317Z,16.20
2023-03-11T12:56:10.136Z,15.80
2023-03-11T13:01:37.896Z,15.50
2023-03-11T13:07:15.806Z,15.30
2023-03-11T13:12:41.387Z,15.00
2023-03-11T13:17:55.704Z,14.70
2023-03-11T13:23:27.362Z,14.60
2023-03-11T13:28:52.156Z,14.70
2023-03-11T13:33:56.669Z,14.70
2023-03-11T13:39:25.757Z,14.40
2023-03-11T13:44:34.284Z,14.00
2023-03-11T13:49:42.701Z,13.40
2023-03-11T13:54:48.616Z,13.00
2023-03-11T13:59:54.675Z,12.60
2023-03-11T14:05:03.359Z,12.30
2023-03-11T14:10:24.246Z,12.10
2023-03-11T14:15:28.165Z,11.80
2023-03-11T14:20:30.549Z,11.60
2023-03-11T14:25:32.848Z,11.50
2023-03-11T14:30:36.657Z,11.40
2023-03-11T14:35:39.879Z,11.50
2023-03-11T14:40:42.276Z,11.70
2023-03-11T14:45:46.944Z,12.00
2023-03-11T14:50:51.714Z,12.10
2023-03-11T14:55:58.829Z,11.90
2023-03-11T15:01:09.652Z,11.60
2023-03-11T15:06:16.289Z,11.40
2023-03-11T15:11:24.653Z,11.10
2023-03-11T15:16:34.272Z,11.00
2023-03-11T15:21:36.721Z,10.90
2023-03-11T15:26:45.077Z,10.80
2023-03-11T15:31:52.846Z,10.60
2023-03-11T15:37:03.209Z,10.40
2023-03-11T15:42:15.010Z,10.20
2023-03-11T15:47:24.870Z,9.90
2023-03-11T15:52:29.920Z,9.70
2023-03-11T15:57:32.661Z,9.40
2023-03-11T16:02:40.072Z,9.20
2023-03-11T16:07:46.491Z,9.10
2023-03-11T16:12:49.264Z,9.10
2023-03-11T16:17:55.662Z,9.10
2023-03-11T16:22:59.419Z,9.00
2023-03-11T16:28:03.092Z,8.90
2023-03-11T16:33:06.892Z,8.80
2023-03-11T16:38:09.878Z,8.60
2023-03-11T16:43:13.273Z,8.40
2023-03-11T16:48:16.988Z,8.40
2023-03-11T16:53:19.322Z,8.30
2023-03-11T16:58:21.847Z,8.20
2023-03-11T17:03:31.600Z,8.20
2023-03-11T17:08:37.208Z,8.10
2023-03-11T17:13:39.455Z,8.00
2023-03-11T17:18:44.131Z,7.80
2023-03-11T17:23:46.733Z,7.70
2023-03-11T17:28:49.035Z,7.60
2023-03-11T17:33:53.346Z,7.40
2023-03-11T17:51:53.110Z,6.90
2023-03-11T17:56:55.534Z,6.70
2023-03-11T18:01:57.751Z,6.60
2023-03-11T18:07:01.412Z,6.50
2023-03-11T18:12:04.086Z,6.40
2023-03-11T18:17:06.304Z,6.30
2023-03-11T18:22:09.886Z,6.20
2023-03-11T18:27:11.998Z,6.10
2023-03-11T18:32:14.185Z,6.00
2023-03-11T18:37:17.825Z,5.90
2023-03-11T18:42:20.010Z,5.90
2023-03-11T18:47:22.182Z,5.90
2023-03-11T18:52:25.791Z,5.80
2023-03-11T18:57:28.031Z,5.70
2023-03-11T19:02:33.748Z,5.60
2023-03-11T19:07:54.594Z,5.60
2023-03-11T19:12:57.859Z,5.50
2023-03-11T19:18:06.640Z,5.50
2023-03-11T19:23:11.333Z,5.40
2023-03-11T19:28:13.452Z,5.40
2023-03-11T19:33:15.791Z,5.30
2023-03-11T19:38:19.643Z,5.30
2023-03-11T19:43:21.977Z,5.20
2023-03-11T19:48:24.823Z,5.20
2023-03-11T19:53:28.831Z,5.20
2023-03-11T19:58:31.573Z,5.10
2023-03-11T20:03:33.773Z,5.10
2023-03-11T20:08:37.567Z,5.00
2023-03-11T20:13:39.841Z,5.00
2023-03-11T20:18:42.717Z,5.00
2023-03-11T20:23:46.461Z,5.10
2023-03-11T20:28:48.761Z,5.10
2023-03-11T20:33:52.308Z,5.20
2023-03-11T20:38:56.148Z,5.20
2023-03-11T20:43:58.430Z,5.30
2023-03-11T20:49:01.392Z,5.30
2023-03-11T20:54:05.166Z,5.30
2023-03-11T20:59:08.200Z,5.40
2023-03-11T21:04:11.220Z,5.40
2023-03-11T21:09:15.866Z,5.40
2023-03-11T21:14:20.521Z,5.40
2023-03-11T21:19:23.464Z,5.40
2023-03-11T21:24:27.279Z,5.50
2023-03-11T21:29:29.777Z,5.50
2023-03-11T21:34:32.153Z,5.50
2023-03-11T21:39:35.997Z,5.50
2023-03-11T21:44:38.499Z,5.50
2023-03-11T21:49:40.815Z,5.40
2023-03-11T21:54:44.559Z,5.40
2023-03-11T21:59:46.780Z,5.40
2023-03-11T22:04:49.024Z,5.40
2023-03-11T22:09:52.985Z,5.40
2023-03-11T22:14:55.175Z,5.40
2023-03-11T22:19:57.665Z,5.30
2023-03-11T22:25:01.553Z,5.20
2023-03-11T22:30:04.449Z,5.10
2023-03-11T22:35:07.216Z,5.00
2023-03-11T22:40:12.165Z,4.90
2023-03-11T22:45:14.270Z,4.80
2023-03-11T22:50:17.101Z,4.70
2023-03-11T22:55:20.666Z,4.60
2023-03-11T23:00:23.693Z,4.50
2023-03-11T23:05:26.147Z,4.40
2023-03-11T23:10:29.796Z,4.30
2023-03-11T23:15:31.912Z,4.30
2023-03-11T23:20:35.754Z,4.20
2023-03-11T23:25:40.687Z,4.10
2023-03-11T23:30:42.832Z,4.10
2023-03-11T23:35:44.996Z,4.10
2023-03-11T23:40:48.629Z,4.00
2023-03-11T23:45:51.297Z,4.00
2023-03-11T23:50:53.392Z,4.00
2023-03-11T23:55:56.925Z,3.90
